Waterville, Iowa
Current Conditions -  °F | °C
As of 8:55 AM on Sunday 23 Nov 2014 (Local Time) from KPDC Reporting Station
Haze Haze  
Wind Chill: 51°   Ceiling: 700
Heat Index: 51°   Visibility: 4mi
Dew Point: 48°   Wind: 8mph
Humidity: 92%   Direction: 130°SE
Pressure: 29.57"   Gusts: NA
Location:  43.21°N, 91.3°W
Report Text: KPDC 231455Z AUTO 13007KT 4SM BR OVC007 10/09 A2957 RMK AO2 T01030090
Loading
Personal Weather Stations






























Interactive Weather Map New forecast layout! Learn more

10-Day Weather Forecast

Advertisements
Track Severe Weather on mobile